Time;durP1;ratioP1;P1;durP2;ratioP2;P2;SDS_P1;SDS_P2;PMS_P1;PMS_P2;Temp;Humidity;BMP_temperature;BMP_pressure;BME280_temperature;BME280_humidity;BME280_pressure;Samples;Min_cycle;Max_cycle;Signal;HPM_P1;HPM_P2
2023/01/31 00:01:06;;;;;;;9.60;2.20;;;;;;;2.08;84.66;102383.88;5015153;28;20036;-77
2023/01/31 00:03:31;;;;;;;8.30;2.03;;;;;;;2.06;84.67;102382.97;5019851;28;20058;-77
2023/01/31 00:05:56;;;;;;;7.43;2.30;;;;;;;2.04;84.24;102394.91;5033772;28;20188;-77
2023/01/31 00:08:21;;;;;;;12.00;2.03;;;;;;;2.01;84.55;102389.66;5017129;28;20033;-77
2023/01/31 00:10:47;;;;;;;8.47;1.83;;;;;;;1.97;84.55;102394.66;5015252;28;20087;-77
2023/01/31 00:13:12;;;;;;;11.80;1.90;;;;;;;1.95;84.60;102392.88;5015968;28;20034;-77
2023/01/31 00:15:37;;;;;;;9.10;1.60;;;;;;;1.91;84.53;102404.72;5014854;28;20030;-78
2023/01/31 00:18:02;;;;;;;7.80;1.77;;;;;;;1.88;84.61;102404.59;5022504;28;20030;-77
2023/01/31 00:20:28;;;;;;;7.47;1.70;;;;;;;1.85;84.46;102404.50;5021524;28;20034;-77
2023/01/31 00:22:53;;;;;;;7.77;1.70;;;;;;;1.81;84.73;102405.22;5019391;28;20484;-77
2023/01/31 00:25:18;;;;;;;5.97;1.67;;;;;;;1.78;84.80;102407.66;5024696;28;20087;-77
2023/01/31 00:27:44;;;;;;;6.93;1.83;;;;;;;1.75;84.75;102404.97;5030537;28;20131;-77
2023/01/31 00:30:09;;;;;;;7.33;1.53;;;;;;;1.74;84.89;102414.38;5025867;28;20065;-77
2023/01/31 00:32:35;;;;;;;6.30;1.47;;;;;;;1.73;84.78;102414.31;5024512;28;20048;-77
2023/01/31 00:35:00;;;;;;;7.90;1.80;;;;;;;1.72;84.89;102408.31;5015601;28;20107;-77
2023/01/31 00:37:25;;;;;;;5.07;1.70;;;;;;;1.72;84.97;102412.56;5028768;28;20037;-77
2023/01/31 00:39:51;;;;;;;5.90;1.60;;;;;;;1.69;85.15;102412.47;5022962;28;20083;-77
2023/01/31 00:42:16;;;;;;;7.63;1.50;;;;;;;1.67;84.85;102412.41;5030414;28;20057;-78
2023/01/31 00:44:41;;;;;;;6.20;1.63;;;;;;;1.64;85.03;102410.59;5026404;28;20030;-77
2023/01/31 00:47:06;;;;;;;12.00;2.50;;;;;;;1.62;84.92;102401.97;5033039;28;20029;-77
2023/01/31 00:49:32;;;;;;;7.30;1.80;;;;;;;1.62;85.14;102396.84;5017926;28;20099;-78
2023/01/31 00:51:57;;;;;;;7.27;1.90;;;;;;;1.59;85.23;102396.72;5019856;28;20128;-77
2023/01/31 00:54:22;;;;;;;8.53;1.87;;;;;;;1.57;85.22;102394.94;5031786;28;20376;-77
2023/01/31 00:56:47;;;;;;;8.13;2.10;;;;;;;1.56;85.45;102394.03;5031362;28;20091;-77
2023/01/31 00:59:13;;;;;;;6.90;1.90;;;;;;;1.57;85.31;102402.63;5025939;28;20424;-77
2023/01/31 01:01:39;;;;;;;8.23;1.63;;;;;;;1.55;85.45;102397.44;5021808;28;20549;-77
2023/01/31 01:04:05;;;;;;;7.67;1.50;;;;;;;1.54;85.47;102398.25;5030965;28;20052;-77
2023/01/31 01:06:31;;;;;;;9.67;1.60;;;;;;;1.52;85.72;102399.91;5032355;28;20079;-77
2023/01/31 01:08:58;;;;;;;9.73;2.00;;;;;;;1.52;85.80;102392.22;5027752;28;20037;-78
2023/01/31 01:11:31;;;;;;;8.17;1.93;;;;;;;1.53;85.87;102396.53;5031012;28;20423;-77
2023/01/31 01:13:58;;;;;;;9.30;1.97;;;;;;;1.54;85.83;102387.97;5015129;28;20029;-77
2023/01/31 01:16:31;;;;;;;7.60;1.70;;;;;;;1.54;86.13;102387.13;5026073;28;20033;-77
2023/01/31 01:18:57;;;;;;;9.20;2.10;;;;;;;1.56;85.90;102370.97;5031610;28;20037;-77
2023/01/31 01:21:27;;;;;;;10.13;2.37;;;;;;;1.56;86.23;102370.97;5030331;28;20033;-77
2023/01/31 01:23:56;;;;;;;7.37;2.17;;;;;;;1.55;86.11;102369.22;5031958;28;20065;-77
2023/01/31 01:26:26;;;;;;;6.03;1.77;;;;;;;1.56;86.40;102365.81;5021471;28;20025;-77
2023/01/31 01:28:53;;;;;;;6.67;2.10;;;;;;;1.56;86.15;102363.25;5018154;28;20056;-77
2023/01/31 01:31:19;;;;;;;7.10;1.77;;;;;;;1.55;86.37;102358.94;5024074;28;20037;-78
2023/01/31 01:33:46;;;;;;;10.50;2.40;;;;;;;1.55;86.35;102353.81;5030690;28;20124;-77
2023/01/31 01:36:20;;;;;;;7.47;1.80;;;;;;;1.54;86.75;102346.94;5018324;28;20032;-77
2023/01/31 01:38:46;;;;;;;9.23;1.90;;;;;;;1.52;86.44;102361.44;5029683;28;20025;-77
2023/01/31 01:41:13;;;;;;;10.37;2.00;;;;;;;1.51;86.58;102347.72;5031363;28;20027;-77
2023/01/31 01:43:47;;;;;;;6.47;1.93;;;;;;;1.54;87.12;102354.63;5027130;28;20030;-77
2023/01/31 01:46:17;;;;;;;10.30;2.43;;;;;;;1.57;87.09;102354.75;5017304;28;20026;-78
2023/01/31 01:48:45;;;;;;;7.70;1.60;;;;;;;1.60;87.10;102354.00;5032052;28;20021;-77
2023/01/31 01:51:14;;;;;;;7.57;1.97;;;;;;;1.60;86.97;102341.19;5030488;28;20108;-77
2023/01/31 01:53:42;;;;;;;7.57;2.23;;;;;;;1.60;86.85;102344.59;5017911;28;20049;-77
2023/01/31 01:56:15;;;;;;;10.17;1.93;;;;;;;1.59;86.97;102348.00;5028383;28;20053;-77
2023/01/31 01:58:43;;;;;;;;;;;;;;;1.62;85.72;102344.69;5018796;28;20030;-77
2023/01/31 02:01:12;;;;;;;8.17;1.90;;;;;;;1.60;86.38;102344.59;5027525;28;19989;-77
2023/01/31 02:03:39;;;;;;;11.73;2.83;;;;;;;1.60;86.72;102346.31;5023180;28;20465;-77
2023/01/31 02:06:05;;;;;;;8.90;2.07;;;;;;;1.59;86.76;102345.41;5012742;28;20028;-77
2023/01/31 02:08:37;;;;;;;7.87;2.30;;;;;;;1.61;86.98;102348.06;5013055;28;20112;-77
2023/01/31 02:11:19;;;;;;;9.80;2.20;;;;;;;1.62;87.16;102355.81;5012877;28;20022;-77
2023/01/31 02:13:46;;;;;;;11.23;3.03;;;;;;;1.63;86.96;102354.97;5031412;28;20492;-77
2023/01/31 02:16:12;;;;;;;8.80;2.63;;;;;;;1.64;87.04;102364.44;5032016;28;20031;-78
2023/01/31 02:18:38;;;;;;;7.70;2.67;;;;;;;1.66;87.34;102362.78;5016100;28;20026;-78
2023/01/31 02:21:18;;;;;;;13.33;3.17;;;;;;;1.71;87.11;102354.41;5028807;28;20029;-77
2023/01/31 02:24:03;;;;;;;9.73;2.70;;;;;;;1.71;86.70;102360.38;5027841;28;20251;-77
2023/01/31 02:26:56;;;;;;;6.77;2.77;;;;;;;1.71;87.34;102369.78;5011184;28;20037;-77
2023/01/31 02:30:00;;;;;;;9.60;3.00;;;;;;;1.73;87.28;102370.69;5017193;28;20448;-77
2023/01/31 02:32:51;;;;;;;9.53;2.57;;;;;;;1.76;87.09;102381.97;4969680;28;20039;-77
2023/01/31 02:35:47;;;;;;;10.25;3.00;;;;;;;1.81;87.31;102371.84;5022132;28;20046;-77
2023/01/31 02:38:27;;;;;;;10.37;2.93;;;;;;;1.85;87.35;102368.56;5019450;28;20440;-77
2023/01/31 02:41:08;;;;;;;10.13;3.00;;;;;;;1.89;87.39;102364.41;5030165;28;20503;-77
2023/01/31 02:46:55;;;;;;;12.00;3.00;;;;;;;1.97;87.32;102358.72;5012515;28;20032;-77
2023/01/31 02:49:34;;;;;;;10.23;3.20;;;;;;;1.99;87.90;102353.63;5018781;28;20030;-77
2023/01/31 02:52:15;;;;;;;13.00;3.60;;;;;;;2.02;87.75;102350.31;5024939;28;20026;-77
2023/01/31 02:57:30;;;;;;;15.47;4.07;;;;;;;2.09;87.50;102353.16;5018748;28;20035;-77
2023/01/31 02:59:55;;;;;;;16.33;4.50;;;;;;;2.11;87.92;102348.06;5019397;28;20408;-77
2023/01/31 03:02:23;;;;;;;11.90;4.13;;;;;;;2.13;88.18;102342.13;5013857;28;20101;-77
2023/01/31 03:04:49;;;;;;;12.67;4.17;;;;;;;2.16;87.98;102349.09;5030439;28;20049;-77
2023/01/31 03:07:25;;;;;;;16.00;4.40;;;;;;;2.19;88.17;102353.44;5030093;28;20499;-77
2023/01/31 03:10:16;;;;;;;13.70;4.60;;;;;;;2.20;88.17;102343.25;5021729;28;21288;-77
2023/01/31 03:13:00;;;;;;;16.60;4.83;;;;;;;2.21;88.16;102342.41;5011687;28;20240;-77
2023/01/31 03:18:48;;;;;;;17.40;4.70;;;;;;;2.24;88.47;102339.94;5023819;28;20031;-77
2023/01/31 03:21:20;;;;;;;13.50;4.43;;;;;;;2.27;88.25;102334.03;5029863;28;20044;-77
2023/01/31 03:23:51;;;;;;;12.53;4.67;;;;;;;2.28;88.50;102326.38;5029999;28;20104;-77
2023/01/31 03:26:19;;;;;;;15.00;5.30;;;;;;;2.30;88.38;102321.31;5030423;28;20021;-77
2023/01/31 03:28:47;;;;;;;14.07;4.63;;;;;;;2.31;88.56;102322.16;5028459;28;20435;-77
2023/01/31 03:31:18;;;;;;;14.30;4.77;;;;;;;2.35;88.56;102324.88;5026078;28;20049;-77
2023/01/31 03:33:47;;;;;;;16.45;5.10;;;;;;;2.37;88.50;102317.25;5026485;28;20496;-77
2023/01/31 03:36:21;;;;;;;15.93;5.47;;;;;;;2.38;88.91;102321.56;5021433;28;20080;-77
2023/01/31 03:39:08;;;;;;;13.90;5.17;;;;;;;2.41;88.65;102319.06;5031834;28;20114;-77
2023/01/31 03:41:47;;;;;;;13.37;5.33;;;;;;;2.41;88.83;102309.69;5029795;28;20104;-77
2023/01/31 03:44:27;;;;;;;15.53;4.87;;;;;;;2.42;88.77;102300.25;5029851;28;20104;-77
2023/01/31 03:46:59;;;;;;;19.93;5.63;;;;;;;2.45;88.84;102304.63;5030225;28;20029;-77
2023/01/31 03:49:26;;;;;;;;;;;;;;;2.47;87.81;102308.13;5034066;28;20133;-77
2023/01/31 03:51:56;;;;;;;17.37;5.87;;;;;;;2.47;88.71;102298.72;5022381;28;20007;-77
2023/01/31 03:54:27;;;;;;;13.77;5.80;;;;;;;2.48;88.91;102302.13;5019899;28;20404;-77
2023/01/31 03:57:00;;;;;;;14.10;5.30;;;;;;;2.49;88.95;102294.50;5030324;28;20112;-77
2023/01/31 03:59:30;;;;;;;19.47;6.00;;;;;;;2.50;88.82;102290.22;5029304;28;20021;-77
2023/01/31 04:01:59;;;;;;;19.10;6.60;;;;;;;2.51;89.46;102298.00;5019331;28;20029;-77
2023/01/31 04:04:31;;;;;;;18.00;6.40;;;;;;;2.53;89.22;102292.88;5033698;28;20034;-77
2023/01/31 04:06:58;;;;;;;14.40;5.70;;;;;;;2.53;89.23;102288.66;5027726;28;20025;-77
2023/01/31 04:09:23;;;;;;;17.17;6.70;;;;;;;2.56;89.52;102290.44;5022203;28;20021;-77
2023/01/31 04:11:49;;;;;;;13.57;6.23;;;;;;;2.56;89.74;102293.84;5022377;28;20022;-77
2023/01/31 04:14:16;;;;;;;19.03;6.47;;;;;;;2.57;89.43;102290.47;5030109;28;20025;-77
2023/01/31 04:16:41;;;;;;;15.93;6.13;;;;;;;2.58;89.72;102299.91;5030014;28;20025;-77
2023/01/31 04:19:06;;;;;;;17.00;6.80;;;;;;;2.57;89.68;102293.03;5018444;28;20502;-77
2023/01/31 04:21:32;;;;;;;17.10;6.53;;;;;;;2.56;89.59;102291.28;5030220;28;20121;-77
2023/01/31 04:23:57;;;;;;;17.13;6.27;;;;;;;2.56;89.53;102287.84;5023526;28;20045;-77
2023/01/31 04:26:22;;;;;;;19.10;6.40;;;;;;;2.55;89.90;102286.09;5026274;28;20029;-77
2023/01/31 04:28:48;;;;;;;17.67;6.47;;;;;;;2.55;89.86;102292.13;5031926;28;20079;-77
2023/01/31 04:31:13;;;;;;;16.93;6.33;;;;;;;2.53;89.73;102288.66;5031486;28;20036;-77
2023/01/31 04:33:38;;;;;;;17.60;6.87;;;;;;;2.49;89.55;102276.53;5020324;28;20030;-77
2023/01/31 04:36:04;;;;;;;20.30;7.40;;;;;;;2.48;89.63;102268.75;5017853;28;20382;-77
2023/01/31 04:38:29;;;;;;;16.97;6.70;;;;;;;2.44;89.90;102270.34;5024062;28;20029;-77
2023/01/31 04:40:54;;;;;;;19.73;6.70;;;;;;;2.44;89.65;102278.06;5033627;28;20033;-77
2023/01/31 04:43:20;;;;;;;18.63;6.80;;;;;;;2.41;89.75;102288.22;5029945;28;20017;-77
2023/01/31 04:45:46;;;;;;;14.10;6.30;;;;;;;2.39;89.79;102274.50;5031979;28;20048;-77
2023/01/31 04:48:12;;;;;;;15.83;6.63;;;;;;;2.36;89.90;102276.97;5020536;28;20087;-77
2023/01/31 04:50:37;;;;;;;18.27;7.17;;;;;;;2.33;89.90;102279.44;5024566;28;20472;-77
2023/01/31 04:53:03;;;;;;;17.83;7.20;;;;;;;2.31;89.87;102275.94;5026912;28;20042;-77
2023/01/31 04:55:29;;;;;;;14.03;6.80;;;;;;;2.28;89.89;102269.88;5014919;28;20022;-77
2023/01/31 04:57:54;;;;;;;19.20;6.87;;;;;;;2.24;89.87;102265.47;5015991;28;20033;-77
2023/01/31 05:00:20;;;;;;;20.20;6.63;;;;;;;2.21;89.93;102255.13;5014237;28;20025;-77
2023/01/31 05:02:45;;;;;;;17.03;6.80;;;;;;;2.18;89.89;102249.00;5016553;28;20706;-77
2023/01/31 05:05:13;;;;;;;16.70;6.27;;;;;;;2.16;89.73;102250.63;5014240;28;20026;-77
2023/01/31 05:07:39;;;;;;;14.33;6.50;;;;;;;2.15;89.74;102248.88;5013882;28;20029;-77
2023/01/31 05:10:05;;;;;;;19.53;6.90;;;;;;;2.12;90.08;102248.00;5013814;28;20026;-77
2023/01/31 05:12:30;;;;;;;18.87;6.77;;;;;;;2.12;89.94;102254.81;5027815;28;20413;-77
2023/01/31 05:14:56;;;;;;;20.57;7.13;;;;;;;2.10;90.24;102249.63;5033432;28;20511;-77
2023/01/31 05:17:28;;;;;;;22.17;7.80;;;;;;;2.12;90.28;102254.81;5032423;28;20406;-77
2023/01/31 05:19:54;;;;;;;16.83;6.60;;;;;;;2.15;90.21;102254.03;5022808;28;20028;-77
2023/01/31 05:22:21;;;;;;;19.97;6.83;;;;;;;2.17;90.59;102247.25;5030333;28;20021;-78
2023/01/31 05:24:47;;;;;;;19.00;7.37;;;;;;;2.18;90.48;102249.00;5024483;28;20029;-77
2023/01/31 05:27:13;;;;;;;17.93;7.20;;;;;;;2.18;90.72;102237.03;5020820;28;20022;-77
2023/01/31 05:29:38;;;;;;;17.10;6.83;;;;;;;2.22;90.34;102233.72;5024104;28;20022;-77
2023/01/31 05:32:04;;;;;;;18.10;7.27;;;;;;;2.23;90.63;102232.03;5032778;28;20456;-77
2023/01/31 05:34:29;;;;;;;18.67;7.23;;;;;;;2.25;90.27;102238.97;5028234;28;20021;-77
2023/01/31 05:36:55;;;;;;;18.40;7.40;;;;;;;2.27;90.07;102234.75;5022951;28;20025;-76
2023/01/31 05:39:20;;;;;;;18.67;6.77;;;;;;;2.27;90.79;102232.19;5023324;28;20077;-77
2023/01/31 05:41:46;;;;;;;17.43;6.70;;;;;;;2.30;90.63;102227.97;5017881;28;20273;-77
2023/01/31 05:44:13;;;;;;;16.93;6.50;;;;;;;2.31;90.83;102229.72;5024177;28;20023;-77
2023/01/31 05:46:38;;;;;;;16.73;6.83;;;;;;;2.32;90.72;102214.34;5025365;28;20473;-77
2023/01/31 05:49:04;;;;;;;18.83;6.67;;;;;;;2.32;90.77;102216.06;5031670;28;20078;-77
2023/01/31 05:51:29;;;;;;;15.70;6.83;;;;;;;2.34;90.40;102219.53;5025575;28;20030;-77
2023/01/31 05:53:54;;;;;;;18.00;6.90;;;;;;;2.34;90.80;102214.41;5025742;28;20061;-77
2023/01/31 05:56:21;;;;;;;14.83;6.57;;;;;;;2.37;90.63;102211.94;5032720;28;20033;-77
2023/01/31 05:58:49;;;;;;;18.17;7.13;;;;;;;2.38;90.58;102226.53;5021040;28;20100;-77
2023/01/31 06:01:23;;;;;;;15.47;6.30;;;;;;;2.40;90.67;102214.56;5018938;28;20026;-77
2023/01/31 06:03:49;;;;;;;16.23;6.50;;;;;;;2.41;90.45;102212.06;5023398;28;20025;-77
2023/01/31 06:06:15;;;;;;;15.20;6.70;;;;;;;2.42;90.49;102216.38;5045867;28;20075;-77
2023/01/31 06:08:43;;;;;;;18.13;6.33;;;;;;;2.43;90.28;102219.81;5025359;28;20037;-78
2023/01/31 06:11:10;;;;;;;16.40;6.57;;;;;;;2.45;90.58;102215.59;5032283;28;20045;-77
2023/01/31 06:13:35;;;;;;;16.03;6.43;;;;;;;2.47;90.31;102220.78;5032325;28;20021;-77
2023/01/31 06:16:01;;;;;;;16.40;6.30;;;;;;;2.47;90.16;102213.94;5031562;28;20032;-77
2023/01/31 06:18:26;;;;;;;18.07;7.07;;;;;;;2.48;90.46;102218.25;5014589;28;20036;-77
2023/01/31 06:20:52;;;;;;;17.00;6.00;;;;;;;2.48;90.25;102210.56;5012640;28;20224;-77
2023/01/31 06:23:18;;;;;;;17.20;6.40;;;;;;;2.50;89.84;102215.72;5015547;28;20048;-78
2023/01/31 06:25:43;;;;;;;16.63;6.50;;;;;;;2.52;89.81;102214.97;5029300;28;20477;-77
2023/01/31 06:28:09;;;;;;;20.33;6.97;;;;;;;2.51;89.95;102209.75;5030005;28;20029;-77
2023/01/31 06:30:34;;;;;;;22.53;7.17;;;;;;;2.52;89.90;102214.97;5029022;28;20034;-77
2023/01/31 06:33:00;;;;;;;16.83;6.63;;;;;;;2.53;90.15;102213.25;5020527;28;20403;-77
2023/01/31 06:35:25;;;;;;;15.17;6.37;;;;;;;2.53;89.85;102210.69;5016123;28;20033;-77
2023/01/31 06:37:50;;;;;;;17.33;6.17;;;;;;;2.54;90.06;102213.31;5027470;28;20126;-77
2023/01/31 06:40:16;;;;;;;18.17;6.33;;;;;;;2.57;89.89;102205.69;5020689;28;20612;-77
2023/01/31 06:42:41;;;;;;;16.93;6.10;;;;;;;2.56;89.81;102206.50;5026741;28;20099;-77
2023/01/31 06:45:07;;;;;;;15.60;5.87;;;;;;;2.58;90.20;102204.84;5026425;28;20108;-77
2023/01/31 06:47:32;;;;;;;15.47;6.03;;;;;;;2.60;89.74;102202.34;5026352;28;20094;-77
2023/01/31 06:49:58;;;;;;;12.03;6.17;;;;;;;2.61;89.52;102206.66;5028006;28;20151;-77
2023/01/31 06:52:24;;;;;;;15.60;6.00;;;;;;;2.63;89.50;102188.72;5026052;28;20516;-78
2023/01/31 06:54:49;;;;;;;16.33;5.83;;;;;;;2.62;89.21;102179.25;5025778;28;20045;-78
2023/01/31 06:57:14;;;;;;;16.00;6.00;;;;;;;2.63;89.41;102194.72;5020586;28;20026;-78
2023/01/31 06:59:40;;;;;;;19.03;6.43;;;;;;;2.64;89.21;102193.03;5025019;28;20028;-77
2023/01/31 07:02:05;;;;;;;15.07;5.67;;;;;;;2.65;89.09;102210.19;5021853;28;20017;-77
2023/01/31 07:04:30;;;;;;;16.70;5.57;;;;;;;2.66;89.24;102197.38;5023521;28;20029;-78
2023/01/31 07:06:56;;;;;;;13.23;5.43;;;;;;;2.67;89.09;102196.53;5017257;28;20449;-77
2023/01/31 07:09:21;;;;;;;14.53;5.63;;;;;;;2.67;89.15;102191.41;5019443;28;20025;-77
2023/01/31 07:11:47;;;;;;;17.10;5.97;;;;;;;2.67;89.10;102187.97;5020572;28;20032;-77
2023/01/31 07:14:12;;;;;;;20.57;6.07;;;;;;;2.69;89.32;102194.03;5023178;28;20029;-77
2023/01/31 07:16:37;;;;;;;19.97;6.10;;;;;;;2.70;89.69;102177.78;5016779;28;20033;-76
2023/01/31 07:19:03;;;;;;;15.27;5.70;;;;;;;2.73;89.52;102177.88;5019770;28;20374;-77
2023/01/31 07:21:29;;;;;;;15.53;5.80;;;;;;;2.72;89.45;102184.69;5020711;28;20051;-76
2023/01/31 07:23:54;;;;;;;14.73;5.23;;;;;;;2.74;89.60;102174.47;5020634;28;20041;-76
2023/01/31 07:26:20;;;;;;;15.50;5.30;;;;;;;2.76;89.21;102185.66;5017612;28;20039;-77
2023/01/31 07:28:45;;;;;;;15.80;6.00;;;;;;;2.78;89.54;102172.88;5020612;28;20033;-77
2023/01/31 07:31:12;;;;;;;14.33;5.40;;;;;;;2.78;90.00;102160.88;5019926;28;20520;-76
2023/01/31 07:33:39;;;;;;;14.00;5.30;;;;;;;2.80;89.75;102166.06;5019115;28;20393;-76
2023/01/31 07:36:06;;;;;;;14.47;5.67;;;;;;;2.81;89.83;102162.69;5022168;28;20037;-76
2023/01/31 07:38:33;;;;;;;14.37;5.70;;;;;;;2.82;89.81;102162.72;5017974;28;20032;-77
2023/01/31 07:40:59;;;;;;;14.57;4.97;;;;;;;2.84;89.76;102161.06;5019945;28;20105;-76
2023/01/31 07:43:25;;;;;;;15.67;4.93;;;;;;;2.87;89.80;102163.72;5021277;28;20459;-77
2023/01/31 07:45:50;;;;;;;15.10;5.33;;;;;;;2.89;90.09;102166.31;5020993;28;20083;-77
2023/01/31 07:48:16;;;;;;;15.63;5.77;;;;;;;2.92;89.78;102168.09;5018221;28;20442;-77
2023/01/31 07:50:47;;;;;;;11.23;5.15;;;;;;;2.98;89.46;102163.13;5021816;28;20117;-77
2023/01/31 07:53:12;;;;;;;14.43;5.23;;;;;;;3.01;89.63;102158.06;5023771;28;20056;-77
2023/01/31 07:55:38;;;;;;;16.43;5.40;;;;;;;3.04;89.53;102159.00;5020931;28;20481;-76
2023/01/31 07:58:03;;;;;;;16.77;5.40;;;;;;;3.03;89.43;102141.84;5018545;28;20026;-77
2023/01/31 08:03:31;;;;;;;12.07;5.47;;;;;;;3.12;89.15;102150.66;5018455;28;20068;-76
2023/01/31 08:05:57;;;;;;;14.70;5.00;;;;;;;3.15;89.12;102143.88;5019639;28;20065;-77
2023/01/31 08:08:22;;;;;;;11.53;4.43;;;;;;;3.18;89.41;102141.38;5019296;28;20134;-77
2023/01/31 08:10:47;;;;;;;12.43;4.47;;;;;;;3.22;89.21;102142.31;5020935;28;20033;-77
2023/01/31 08:13:12;;;;;;;13.97;4.33;;;;;;;3.25;89.28;102136.38;5018960;28;20037;-77
2023/01/31 08:15:38;;;;;;;11.80;4.50;;;;;;;3.29;89.30;102130.50;5019957;28;20064;-77
2023/01/31 08:18:03;;;;;;;16.10;4.57;;;;;;;3.33;88.74;102128.03;5020963;28;20029;-76
2023/01/31 08:20:29;;;;;;;13.97;4.50;;;;;;;3.39;88.52;102134.16;5024012;28;20102;-77
2023/01/31 08:22:58;;;;;;;14.80;4.67;;;;;;;3.42;88.72;102129.09;5022487;28;20033;-77
2023/01/31 08:25:25;;;;;;;11.40;3.97;;;;;;;3.46;88.41;102123.22;5022475;28;20220;-77
2023/01/31 08:27:50;;;;;;;14.30;5.00;;;;;;;3.51;88.11;102133.59;5022174;28;20584;-77
2023/01/31 08:30:16;;;;;;;15.83;4.50;;;;;;;3.53;88.07;102129.38;5024881;28;20217;-77
2023/01/31 08:32:41;;;;;;;15.63;4.47;;;;;;;3.55;88.23;102120.84;5023837;28;21348;-77
2023/01/31 08:35:07;;;;;;;13.37;4.07;;;;;;;3.58;88.29;102115.78;5023904;28;20036;-77
2023/01/31 08:37:33;;;;;;;15.23;4.47;;;;;;;3.61;88.03;102122.69;5024299;28;20415;-76
2023/01/31 08:39:58;;;;;;;11.90;4.07;;;;;;;3.64;88.17;102108.22;5023376;28;20033;-76
2023/01/31 08:42:23;;;;;;;16.87;4.50;;;;;;;3.67;88.20;102104.84;5024272;28;20087;-76
2023/01/31 08:44:49;;;;;;;11.00;4.13;;;;;;;3.69;87.98;102103.16;5022913;28;20034;-76
2023/01/31 08:47:14;;;;;;;12.57;4.40;;;;;;;3.72;87.67;102108.41;5020495;28;20055;-76
2023/01/31 08:49:40;;;;;;;11.00;4.40;;;;;;;3.74;87.80;102111.00;5018763;28;20068;-76
2023/01/31 08:52:05;;;;;;;14.97;3.93;;;;;;;3.78;87.22;102098.22;5022322;28;20450;-75
2023/01/31 08:54:30;;;;;;;10.20;4.00;;;;;;;3.81;87.51;102097.44;5021473;28;20940;-75
2023/01/31 08:56:55;;;;;;;14.57;4.43;;;;;;;3.82;87.23;102091.47;5022924;28;20037;-76
2023/01/31 08:59:21;;;;;;;14.07;4.47;;;;;;;3.85;87.25;102093.22;5024762;28;20038;-76
2023/01/31 09:01:46;;;;;;;13.57;4.37;;;;;;;3.88;86.93;102093.28;5021952;28;20485;-76
2023/01/31 09:04:12;;;;;;;12.87;4.43;;;;;;;3.92;86.79;102083.09;5019577;28;20109;-76
2023/01/31 09:06:37;;;;;;;14.57;4.10;;;;;;;3.97;86.89;102085.75;5023980;28;20052;-77
2023/01/31 09:09:03;;;;;;;13.73;4.23;;;;;;;4.02;86.85;102089.31;5023751;28;20572;-77
2023/01/31 09:11:29;;;;;;;14.23;4.13;;;;;;;4.05;86.68;102086.81;5021286;28;20038;-77
2023/01/31 09:13:54;;;;;;;12.30;3.90;;;;;;;4.07;86.98;102085.13;5024621;28;20361;-76
2023/01/31 09:16:20;;;;;;;12.87;4.20;;;;;;;4.10;87.05;102084.31;5023300;28;20495;-76
2023/01/31 09:18:45;;;;;;;12.50;4.00;;;;;;;4.14;86.85;102085.25;5019144;28;20053;-76
2023/01/31 09:21:14;;;;;;;13.40;3.80;;;;;;;4.18;86.79;102067.34;5024020;28;20028;-77
2023/01/31 09:23:40;;;;;;;8.73;4.20;;;;;;;4.21;86.59;102069.94;5022125;28;20029;-77
2023/01/31 09:26:06;;;;;;;11.93;3.77;;;;;;;4.29;86.61;102051.22;5019591;28;20045;-76
2023/01/31 09:28:32;;;;;;;14.40;4.07;;;;;;;4.36;86.34;102050.47;5018213;28;20034;-77
2023/01/31 09:31:05;;;;;;;13.20;4.50;;;;;;;4.44;86.29;102053.25;5020214;28;20029;-76
2023/01/31 09:33:32;;;;;;;13.07;4.20;;;;;;;4.49;86.06;102051.59;5021261;28;20424;-76
2023/01/31 09:36:02;;;;;;;14.10;3.90;;;;;;;4.54;85.90;102063.72;5021614;28;20041;-77
2023/01/31 09:38:28;;;;;;;15.43;4.23;;;;;;;4.61;85.88;102051.81;5022865;28;20068;-76
2023/01/31 09:40:55;;;;;;;12.03;3.53;;;;;;;4.64;86.03;102064.78;5023154;28;20061;-76
2023/01/31 09:43:25;;;;;;;9.93;3.73;;;;;;;4.70;85.73;102058.84;5021018;28;20029;-76
2023/01/31 09:45:54;;;;;;;12.27;4.17;;;;;;;4.71;85.42;102058.00;5021132;28;20045;-77
2023/01/31 09:48:27;;;;;;;9.18;3.25;;;;;;;4.75;85.71;102048.66;5022671;28;20059;-81
2023/01/31 09:50:57;;;;;;;9.90;3.70;;;;;;;4.78;85.47;102048.72;5021184;28;20064;-77
2023/01/31 09:53:29;;;;;;;13.50;3.70;;;;;;;4.81;85.56;102056.47;5020010;28;20049;-76
2023/01/31 09:56:11;;;;;;;11.15;3.80;;;;;;;4.83;86.22;102055.69;5019489;28;20041;-77
2023/01/31 09:58:55;;;;;;;9.90;3.40;;;;;;;4.86;85.97;102053.16;5022949;28;20115;-77
2023/01/31 10:01:26;;;;;;;11.00;3.53;;;;;;;4.89;85.62;102049.75;5021617;28;20478;-77
2023/01/31 10:04:18;;;;;;;9.15;3.70;;;;;;;4.92;85.00;102057.56;5020743;28;20392;-77
2023/01/31 10:06:46;;;;;;;12.52;4.00;;;;;;;4.93;85.30;102056.72;5022348;28;20112;-77
2023/01/31 10:09:28;;;;;;;13.43;3.97;;;;;;;4.95;85.36;102054.16;5021552;28;20037;-76
2023/01/31 10:11:59;;;;;;;15.10;4.15;;;;;;;4.94;85.72;102055.00;5020489;28;20033;-77
2023/01/31 10:14:38;;;;;;;12.73;3.78;;;;;;;4.99;85.41;102059.38;5021656;28;20036;-77
2023/01/31 10:17:37;;;;;;;11.88;4.53;;;;;;;5.06;85.54;102051.75;5021709;28;20029;-77
2023/01/31 10:20:07;;;;;;;13.35;4.00;;;;;;;5.16;85.92;102048.47;5018757;28;20492;-77
2023/01/31 10:22:38;;;;;;;12.77;4.60;;;;;;;5.22;85.20;102038.25;5021120;28;20037;-77
2023/01/31 10:25:26;;;;;;;9.93;3.90;;;;;;;5.24;85.09;102048.59;5021699;28;20137;-77
2023/01/31 10:28:01;;;;;;;11.35;4.32;;;;;;;5.22;84.96;102058.91;5020001;28;20488;-76
2023/01/31 10:30:40;;;;;;;15.45;4.55;;;;;;;5.18;85.25;102059.69;5021163;28;20030;-77
2023/01/31 10:33:20;;;;;;;13.88;5.20;;;;;;;5.16;85.19;102053.63;5020399;28;20038;-76
2023/01/31 10:35:48;;;;;;;13.90;5.47;;;;;;;5.15;85.38;102055.34;5019747;28;20044;-76
2023/01/31 10:38:40;;;;;;;15.50;5.85;;;;;;;5.14;85.77;102052.72;5021086;28;20037;-76
2023/01/31 10:41:13;;;;;;;12.20;5.53;;;;;;;5.15;85.90;102059.63;5021465;28;20038;-76
2023/01/31 10:43:49;;;;;;;16.38;6.80;;;;;;;5.15;85.94;102042.47;5021167;28;20037;-76
2023/01/31 10:46:14;;;;;;;16.92;6.72;;;;;;;5.18;85.96;102054.53;5020670;28;20033;-76
2023/01/31 10:48:42;;;;;;;11.90;6.60;;;;;;;5.19;86.41;102055.41;5022745;28;20052;-77
2023/01/31 10:51:27;;;;;;;19.30;7.53;;;;;;;5.26;86.12;102058.13;5018079;28;20108;-78
2023/01/31 10:54:30;;;;;;;15.27;7.13;;;;;;;5.30;86.13;102038.38;5019318;28;20052;-76
2023/01/31 10:56:56;;;;;;;16.23;6.95;;;;;;;5.37;85.86;102034.19;5021555;28;20029;-77
2023/01/31 10:59:32;;;;;;;16.10;7.38;;;;;;;5.41;86.07;102030.81;5021215;28;20030;-77
2023/01/31 11:01:58;;;;;;;16.85;7.53;;;;;;;5.43;85.98;102039.44;5018881;28;20354;-77
2023/01/31 11:04:26;;;;;;;18.92;7.63;;;;;;;5.45;86.29;102027.44;5020936;28;20034;-77
2023/01/31 11:06:52;;;;;;;15.52;7.90;;;;;;;5.49;86.22;102029.19;5020012;28;20034;-76
2023/01/31 11:09:20;;;;;;;20.75;9.02;;;;;;;5.55;85.99;102018.97;5021560;28;20021;-77
2023/01/31 11:11:55;;;;;;;18.55;8.63;;;;;;;5.57;86.25;102017.28;5019137;28;20067;-77
2023/01/31 11:14:20;;;;;;;20.60;9.77;;;;;;;5.61;86.39;102016.47;5017425;28;20350;-77
2023/01/31 11:16:47;;;;;;;17.10;9.32;;;;;;;5.69;85.82;102011.41;5018815;28;20037;-77
2023/01/31 11:19:26;;;;;;;19.50;9.55;;;;;;;5.72;85.64;101995.09;5019552;28;20155;-76
2023/01/31 11:21:53;;;;;;;22.15;9.55;;;;;;;5.75;85.57;102000.31;5015739;28;20026;-78
2023/01/31 11:24:23;;;;;;;17.17;9.90;;;;;;;5.81;85.78;101999.50;5019387;28;20030;-77
2023/01/31 11:27:06;;;;;;;20.80;9.90;;;;;;;5.86;85.48;101997.88;5017874;28;20117;-76
2023/01/31 11:29:36;;;;;;;18.75;10.55;;;;;;;5.87;85.64;101994.44;5016723;28;20033;-77
2023/01/31 11:32:11;;;;;;;20.77;10.30;;;;;;;5.86;85.70;101993.56;5017936;28;20029;-77
2023/01/31 11:34:36;;;;;;;21.00;9.90;;;;;;;5.88;85.49;101986.69;5019153;28;20033;-77
2023/01/31 11:37:22;;;;;;;19.98;9.70;;;;;;;5.86;85.83;101985.81;5018037;28;20507;-77
2023/01/31 11:39:59;;;;;;;22.80;10.75;;;;;;;5.86;85.58;101997.88;5018439;28;20049;-77
2023/01/31 11:42:25;;;;;;;19.42;9.48;;;;;;;5.83;85.70;101996.09;5018767;28;20376;-77
2023/01/31 11:45:02;;;;;;;20.55;10.85;;;;;;;5.85;85.53;101990.97;5018749;28;20037;-77
2023/01/31 11:47:31;;;;;;;17.20;9.20;;;;;;;5.86;85.37;101997.88;5019150;28;20026;-76